sensor_id;sensor_type;location;lat;lon;timestamp;temperature;humidity
67862;DHT22;54665;51.462;6.698;2023-07-16T00:01:52;18.49;86.24
67862;DHT22;54665;51.462;6.698;2023-07-16T00:03:52;18.41;87.12
67862;DHT22;54665;51.462;6.698;2023-07-16T00:05:52;18.28;87.30
67862;DHT22;54665;51.462;6.698;2023-07-16T00:07:52;18.21;87.66
67862;DHT22;54665;51.462;6.698;2023-07-16T00:09:53;18.18;87.94
67862;DHT22;54665;51.462;6.698;2023-07-16T00:11:53;18.15;88.41
67862;DHT22;54665;51.462;6.698;2023-07-16T00:13:54;18.12;88.34
67862;DHT22;54665;51.462;6.698;2023-07-16T00:15:54;18.11;88.45
67862;DHT22;54665;51.462;6.698;2023-07-16T00:17:54;18.14;88.77
67862;DHT22;54665;51.462;6.698;2023-07-16T00:19:54;18.09;89.15
67862;DHT22;54665;51.462;6.698;2023-07-16T00:21:55;18.04;89.40
67862;DHT22;54665;51.462;6.698;2023-07-16T00:23:55;18.04;89.66
67862;DHT22;54665;51.462;6.698;2023-07-16T00:25:55;18.00;90.03
67862;DHT22;54665;51.462;6.698;2023-07-16T00:27:57;17.91;90.26
67862;DHT22;54665;51.462;6.698;2023-07-16T00:29:57;17.91;90.22
67862;DHT22;54665;51.462;6.698;2023-07-16T00:31:57;17.87;90.49
67862;DHT22;54665;51.462;6.698;2023-07-16T00:33:58;17.86;90.58
67862;DHT22;54665;51.462;6.698;2023-07-16T00:35:58;17.81;90.91
67862;DHT22;54665;51.462;6.698;2023-07-16T00:37:58;17.81;90.80
67862;DHT22;54665;51.462;6.698;2023-07-16T00:39:59;17.80;90.87
67862;DHT22;54665;51.462;6.698;2023-07-16T00:41:59;17.77;91.13
67862;DHT22;54665;51.462;6.698;2023-07-16T00:43:59;17.77;91.18
67862;DHT22;54665;51.462;6.698;2023-07-16T00:46:00;17.80;91.21
67862;DHT22;54665;51.462;6.698;2023-07-16T00:48:00;17.76;91.19
67862;DHT22;54665;51.462;6.698;2023-07-16T00:50:01;17.77;91.34
67862;DHT22;54665;51.462;6.698;2023-07-16T00:52:02;17.74;91.53
67862;DHT22;54665;51.462;6.698;2023-07-16T00:54:02;17.73;91.50
67862;DHT22;54665;51.462;6.698;2023-07-16T00:56:03;17.70;91.60
67862;DHT22;54665;51.462;6.698;2023-07-16T00:58:05;17.69;91.65
67862;DHT22;54665;51.462;6.698;2023-07-16T01:00:07;17.65;91.72
67862;DHT22;54665;51.462;6.698;2023-07-16T01:02:07;17.56;91.77
67862;DHT22;54665;51.462;6.698;2023-07-16T01:04:08;17.49;91.78
67862;DHT22;54665;51.462;6.698;2023-07-16T01:06:18;17.39;91.78
67862;DHT22;54665;51.462;6.698;2023-07-16T01:08:32;17.30;92.24
67862;DHT22;54665;51.462;6.698;2023-07-16T01:10:39;17.20;92.22
67862;DHT22;54665;51.462;6.698;2023-07-16T01:12:39;17.15;92.55
67862;DHT22;54665;51.462;6.698;2023-07-16T01:14:40;17.08;92.46
67862;DHT22;54665;51.462;6.698;2023-07-16T01:16:41;17.05;92.83
67862;DHT22;54665;51.462;6.698;2023-07-16T01:18:42;16.98;92.78
67862;DHT22;54665;51.462;6.698;2023-07-16T01:20:42;16.92;92.86
67862;DHT22;54665;51.462;6.698;2023-07-16T01:23:04;16.85;92.97
67862;DHT22;54665;51.462;6.698;2023-07-16T01:27:57;16.82;93.45
67862;DHT22;54665;51.462;6.698;2023-07-16T01:30:04;16.77;93.51
67862;DHT22;54665;51.462;6.698;2023-07-16T01:32:05;16.75;93.58
67862;DHT22;54665;51.462;6.698;2023-07-16T01:34:10;16.71;93.63
67862;DHT22;54665;51.462;6.698;2023-07-16T01:36:11;16.63;93.51
67862;DHT22;54665;51.462;6.698;2023-07-16T01:38:12;16.65;93.79
67862;DHT22;54665;51.462;6.698;2023-07-16T01:40:14;16.60;93.66
67862;DHT22;54665;51.462;6.698;2023-07-16T01:42:14;16.63;93.81
67862;DHT22;54665;51.462;6.698;2023-07-16T01:44:15;16.63;93.87
67862;DHT22;54665;51.462;6.698;2023-07-16T01:46:15;16.60;93.67
67862;DHT22;54665;51.462;6.698;2023-07-16T01:48:31;16.54;93.63
67862;DHT22;54665;51.462;6.698;2023-07-16T01:50:33;16.53;93.89
67862;DHT22;54665;51.462;6.698;2023-07-16T01:52:33;16.55;93.74
67862;DHT22;54665;51.462;6.698;2023-07-16T01:54:34;16.60;93.88
67862;DHT22;54665;51.462;6.698;2023-07-16T01:56:34;16.54;93.79
67862;DHT22;54665;51.462;6.698;2023-07-16T01:58:34;16.58;94.00
67862;DHT22;54665;51.462;6.698;2023-07-16T02:00:36;16.57;93.90
67862;DHT22;54665;51.462;6.698;2023-07-16T02:02:36;16.51;93.83
67862;DHT22;54665;51.462;6.698;2023-07-16T02:04:36;16.54;93.84
67862;DHT22;54665;51.462;6.698;2023-07-16T02:06:37;16.48;93.92
67862;DHT22;54665;51.462;6.698;2023-07-16T02:08:37;16.50;93.95
67862;DHT22;54665;51.462;6.698;2023-07-16T02:10:38;16.46;93.85
67862;DHT22;54665;51.462;6.698;2023-07-16T02:12:38;16.43;93.82
67862;DHT22;54665;51.462;6.698;2023-07-16T02:14:38;16.38;93.82
67862;DHT22;54665;51.462;6.698;2023-07-16T02:16:39;16.31;93.66
67862;DHT22;54665;51.462;6.698;2023-07-16T02:18:39;16.27;93.71
67862;DHT22;54665;51.462;6.698;2023-07-16T02:20:40;16.23;93.76
67862;DHT22;54665;51.462;6.698;2023-07-16T02:22:40;16.21;93.90
67862;DHT22;54665;51.462;6.698;2023-07-16T02:24:40;16.14;94.05
67862;DHT22;54665;51.462;6.698;2023-07-16T02:26:40;16.16;94.08
67862;DHT22;54665;51.462;6.698;2023-07-16T02:28:41;16.18;94.03
67862;DHT22;54665;51.462;6.698;2023-07-16T02:30:41;16.21;94.08
67862;DHT22;54665;51.462;6.698;2023-07-16T02:32:41;16.26;93.85
67862;DHT22;54665;51.462;6.698;2023-07-16T02:34:42;16.21;93.82
67862;DHT22;54665;51.462;6.698;2023-07-16T02:36:42;16.20;93.64
67862;DHT22;54665;51.462;6.698;2023-07-16T02:38:42;16.20;93.83
67862;DHT22;54665;51.462;6.698;2023-07-16T02:40:44;16.18;93.71
67862;DHT22;54665;51.462;6.698;2023-07-16T02:42:44;16.20;93.50
67862;DHT22;54665;51.462;6.698;2023-07-16T02:44:45;16.16;93.42
67862;DHT22;54665;51.462;6.698;2023-07-16T02:46:45;16.26;93.27
67862;DHT22;54665;51.462;6.698;2023-07-16T02:48:45;16.24;93.30
67862;DHT22;54665;51.462;6.698;2023-07-16T02:50:46;16.27;93.21
67862;DHT22;54665;51.462;6.698;2023-07-16T02:52:46;16.37;93.08
67862;DHT22;54665;51.462;6.698;2023-07-16T02:54:46;16.37;92.77
67862;DHT22;54665;51.462;6.698;2023-07-16T02:56:47;16.41;92.64
67862;DHT22;54665;51.462;6.698;2023-07-16T02:58:47;16.47;92.57
67862;DHT22;54665;51.462;6.698;2023-07-16T03:00:49;16.41;92.40
67862;DHT22;54665;51.462;6.698;2023-07-16T03:02:49;16.34;92.36
67862;DHT22;54665;51.462;6.698;2023-07-16T03:04:50;16.36;92.32
67862;DHT22;54665;51.462;6.698;2023-07-16T03:06:50;16.31;92.09
67862;DHT22;54665;51.462;6.698;2023-07-16T03:08:51;16.33;92.17
67862;DHT22;54665;51.462;6.698;2023-07-16T03:10:52;16.27;92.21
67862;DHT22;54665;51.462;6.698;2023-07-16T03:12:53;16.31;92.10
67862;DHT22;54665;51.462;6.698;2023-07-16T03:14:54;16.24;92.08
67862;DHT22;54665;51.462;6.698;2023-07-16T03:16:54;16.31;91.91
67862;DHT22;54665;51.462;6.698;2023-07-16T03:18:55;16.27;91.92
67862;DHT22;54665;51.462;6.698;2023-07-16T03:20:56;16.40;91.44
67862;DHT22;54665;51.462;6.698;2023-07-16T03:22:57;16.28;91.51
67862;DHT22;54665;51.462;6.698;2023-07-16T03:24:57;16.31;91.27
67862;DHT22;54665;51.462;6.698;2023-07-16T03:26:57;16.34;91.24
67862;DHT22;54665;51.462;6.698;2023-07-16T03:28:58;16.37;91.01
67862;DHT22;54665;51.462;6.698;2023-07-16T03:30:58;16.31;90.76
67862;DHT22;54665;51.462;6.698;2023-07-16T03:32:59;16.33;90.41
67862;DHT22;54665;51.462;6.698;2023-07-16T03:34:59;16.24;90.47
67862;DHT22;54665;51.462;6.698;2023-07-16T03:37:00;16.18;90.41
67862;DHT22;54665;51.462;6.698;2023-07-16T03:39:00;16.16;90.10
67862;DHT22;54665;51.462;6.698;2023-07-16T03:41:01;16.21;89.03
67862;DHT22;54665;51.462;6.698;2023-07-16T03:43:01;16.18;89.38
67862;DHT22;54665;51.462;6.698;2023-07-16T03:45:02;16.17;88.89
67862;DHT22;54665;51.462;6.698;2023-07-16T03:47:02;16.16;88.46
67862;DHT22;54665;51.462;6.698;2023-07-16T03:49:03;16.13;88.28
67862;DHT22;54665;51.462;6.698;2023-07-16T03:51:06;16.06;87.99
67862;DHT22;54665;51.462;6.698;2023-07-16T03:53:07;16.09;87.77
67862;DHT22;54665;51.462;6.698;2023-07-16T03:55:07;16.09;87.39
67862;DHT22;54665;51.462;6.698;2023-07-16T03:57:08;16.07;87.42
67862;DHT22;54665;51.462;6.698;2023-07-16T03:59:08;16.03;87.75
67862;DHT22;54665;51.462;6.698;2023-07-16T04:01:09;15.95;87.54
67862;DHT22;54665;51.462;6.698;2023-07-16T04:03:09;15.95;87.62
67862;DHT22;54665;51.462;6.698;2023-07-16T04:05:09;15.93;87.76
67862;DHT22;54665;51.462;6.698;2023-07-16T04:07:10;15.92;88.00
67862;DHT22;54665;51.462;6.698;2023-07-16T04:09:10;15.92;87.88
67862;DHT22;54665;51.462;6.698;2023-07-16T04:11:10;15.99;87.32
67862;DHT22;54665;51.462;6.698;2023-07-16T04:13:11;15.99;87.69
67862;DHT22;54665;51.462;6.698;2023-07-16T04:15:11;16.02;87.67
67862;DHT22;54665;51.462;6.698;2023-07-16T04:17:11;16.05;87.45
67862;DHT22;54665;51.462;6.698;2023-07-16T04:19:12;16.02;87.01
67862;DHT22;54665;51.462;6.698;2023-07-16T04:21:12;16.12;86.63
67862;DHT22;54665;51.462;6.698;2023-07-16T04:23:12;16.09;86.09
67862;DHT22;54665;51.462;6.698;2023-07-16T04:25:13;16.14;85.72
67862;DHT22;54665;51.462;6.698;2023-07-16T04:27:13;16.16;85.28
67862;DHT22;54665;51.462;6.698;2023-07-16T04:29:13;16.16;84.90
67862;DHT22;54665;51.462;6.698;2023-07-16T04:31:14;16.16;85.32
67862;DHT22;54665;51.462;6.698;2023-07-16T04:33:14;16.12;85.34
67862;DHT22;54665;51.462;6.698;2023-07-16T04:35:14;16.18;85.15
67862;DHT22;54665;51.462;6.698;2023-07-16T04:37:15;16.24;85.02
67862;DHT22;54665;51.462;6.698;2023-07-16T04:39:15;16.23;85.09
67862;DHT22;54665;51.462;6.698;2023-07-16T04:41:16;16.20;85.24
67862;DHT22;54665;51.462;6.698;2023-07-16T04:43:16;16.13;85.60
67862;DHT22;54665;51.462;6.698;2023-07-16T04:45:17;16.13;85.75
67862;DHT22;54665;51.462;6.698;2023-07-16T04:47:17;16.14;85.55
67862;DHT22;54665;51.462;6.698;2023-07-16T04:49:17;16.23;85.29
67862;DHT22;54665;51.462;6.698;2023-07-16T04:51:17;16.27;84.74
67862;DHT22;54665;51.462;6.698;2023-07-16T04:53:18;16.37;84.14
67862;DHT22;54665;51.462;6.698;2023-07-16T04:55:18;16.54;83.18
67862;DHT22;54665;51.462;6.698;2023-07-16T04:57:18;16.74;80.76
67862;DHT22;54665;51.462;6.698;2023-07-16T04:59:19;16.77;80.63
67862;DHT22;54665;51.462;6.698;2023-07-16T05:01:19;16.82;80.13
67862;DHT22;54665;51.462;6.698;2023-07-16T05:03:19;16.78;80.30
67862;DHT22;54665;51.462;6.698;2023-07-16T05:05:19;16.81;80.20
67862;DHT22;54665;51.462;6.698;2023-07-16T05:07:20;16.79;80.44
67862;DHT22;54665;51.462;6.698;2023-07-16T05:09:20;16.81;80.90
67862;DHT22;54665;51.462;6.698;2023-07-16T05:11:20;16.79;81.10
67862;DHT22;54665;51.462;6.698;2023-07-16T05:13:21;16.77;81.25
67862;DHT22;54665;51.462;6.698;2023-07-16T05:15:21;16.79;81.32
67862;DHT22;54665;51.462;6.698;2023-07-16T05:17:22;16.78;82.24
67862;DHT22;54665;51.462;6.698;2023-07-16T05:19:22;16.81;81.40
67862;DHT22;54665;51.462;6.698;2023-07-16T05:21:22;16.84;81.57
67862;DHT22;54665;51.462;6.698;2023-07-16T05:23:23;16.85;81.39
67862;DHT22;54665;51.462;6.698;2023-07-16T05:25:23;16.92;81.44
67862;DHT22;54665;51.462;6.698;2023-07-16T05:27:23;16.96;81.28
67862;DHT22;54665;51.462;6.698;2023-07-16T05:29:23;17.08;81.49
67862;DHT22;54665;51.462;6.698;2023-07-16T05:31:24;17.14;81.03
67862;DHT22;54665;51.462;6.698;2023-07-16T05:33:24;17.20;80.73
67862;DHT22;54665;51.462;6.698;2023-07-16T05:35:24;17.22;81.00
67862;DHT22;54665;51.462;6.698;2023-07-16T05:37:26;17.23;80.45
67862;DHT22;54665;51.462;6.698;2023-07-16T05:39:26;17.30;80.23
67862;DHT22;54665;51.462;6.698;2023-07-16T05:41:26;17.35;79.94
67862;DHT22;54665;51.462;6.698;2023-07-16T05:43:26;17.46;79.34
67862;DHT22;54665;51.462;6.698;2023-07-16T05:45:27;17.54;78.55
67862;DHT22;54665;51.462;6.698;2023-07-16T05:47:27;17.57;79.04
67862;DHT22;54665;51.462;6.698;2023-07-16T05:49:27;17.69;78.17
67862;DHT22;54665;51.462;6.698;2023-07-16T05:51:28;17.71;77.62
67862;DHT22;54665;51.462;6.698;2023-07-16T05:53:28;17.70;77.49
67862;DHT22;54665;51.462;6.698;2023-07-16T05:55:28;17.77;76.83
67862;DHT22;54665;51.462;6.698;2023-07-16T05:57:29;17.84;75.71
67862;DHT22;54665;51.462;6.698;2023-07-16T05:59:29;17.90;75.78
67862;DHT22;54665;51.462;6.698;2023-07-16T06:01:29;17.93;75.18
67862;DHT22;54665;51.462;6.698;2023-07-16T06:03:29;18.04;75.84
67862;DHT22;54665;51.462;6.698;2023-07-16T06:05:30;18.18;74.30
67862;DHT22;54665;51.462;6.698;2023-07-16T06:07:30;18.38;74.31
67862;DHT22;54665;51.462;6.698;2023-07-16T06:09:30;18.63;72.91
67862;DHT22;54665;51.462;6.698;2023-07-16T06:11:31;18.77;72.84
67862;DHT22;54665;51.462;6.698;2023-07-16T06:13:31;19.32;69.39
67862;DHT22;54665;51.462;6.698;2023-07-16T06:15:32;19.96;68.52
67862;DHT22;54665;51.462;6.698;2023-07-16T06:17:32;20.04;66.91
67862;DHT22;54665;51.462;6.698;2023-07-16T06:19:32;20.73;66.49
67862;DHT22;54665;51.462;6.698;2023-07-16T06:21:32;20.73;65.75
67862;DHT22;54665;51.462;6.698;2023-07-16T06:23:33;20.88;65.08
67862;DHT22;54665;51.462;6.698;2023-07-16T06:25:33;21.17;63.36
67862;DHT22;54665;51.462;6.698;2023-07-16T06:27:33;21.69;62.59
67862;DHT22;54665;51.462;6.698;2023-07-16T06:29:34;21.42;63.31
67862;DHT22;54665;51.462;6.698;2023-07-16T06:31:34;21.86;61.51
67862;DHT22;54665;51.462;6.698;2023-07-16T06:33:35;21.71;61.76
67862;DHT22;54665;51.462;6.698;2023-07-16T06:35:35;22.04;61.38
67862;DHT22;54665;51.462;6.698;2023-07-16T06:37:35;21.94;61.34
67862;DHT22;54665;51.462;6.698;2023-07-16T06:39:35;21.51;60.59
67862;DHT22;54665;51.462;6.698;2023-07-16T06:41:36;21.97;60.56
67862;DHT22;54665;51.462;6.698;2023-07-16T06:43:36;21.96;59.94
67862;DHT22;54665;51.462;6.698;2023-07-16T06:45:36;21.72;60.36
67862;DHT22;54665;51.462;6.698;2023-07-16T06:47:37;21.18;61.67
67862;DHT22;54665;51.462;6.698;2023-07-16T06:49:38;22.00;60.06
67862;DHT22;54665;51.462;6.698;2023-07-16T06:51:38;21.82;60.82
67862;DHT22;54665;51.462;6.698;2023-07-16T06:53:39;21.93;60.10
67862;DHT22;54665;51.462;6.698;2023-07-16T06:55:39;22.44;59.79
67862;DHT22;54665;51.462;6.698;2023-07-16T06:57:39;23.30;57.28
67862;DHT22;54665;51.462;6.698;2023-07-16T06:59:39;23.36;57.26
67862;DHT22;54665;51.462;6.698;2023-07-16T07:01:40;22.34;57.07
67862;DHT22;54665;51.462;6.698;2023-07-16T07:03:40;22.25;59.29
67862;DHT22;54665;51.462;6.698;2023-07-16T07:05:41;22.54;59.24
67862;DHT22;54665;51.462;6.698;2023-07-16T07:07:41;22.95;56.10
67862;DHT22;54665;51.462;6.698;2023-07-16T07:09:42;23.01;56.35
67862;DHT22;54665;51.462;6.698;2023-07-16T07:11:42;22.37;57.28
67862;DHT22;54665;51.462;6.698;2023-07-16T07:13:42;23.04;55.21
67862;DHT22;54665;51.462;6.698;2023-07-16T07:15:43;21.52;58.72
67862;DHT22;54665;51.462;6.698;2023-07-16T07:17:43;22.41;58.23
67862;DHT22;54665;51.462;6.698;2023-07-16T07:19:44;23.32;56.74
67862;DHT22;54665;51.462;6.698;2023-07-16T07:21:44;21.90;57.92
67862;DHT22;54665;51.462;6.698;2023-07-16T07:23:44;21.86;58.71
67862;DHT22;54665;51.462;6.698;2023-07-16T07:25:51;22.45;57.88
67862;DHT22;54665;51.462;6.698;2023-07-16T07:27:52;22.12;57.33
67862;DHT22;54665;51.462;6.698;2023-07-16T07:29:52;21.86;58.16
67862;DHT22;54665;51.462;6.698;2023-07-16T07:31:53;21.71;58.49
67862;DHT22;54665;51.462;6.698;2023-07-16T07:33:53;22.95;55.96
67862;DHT22;54665;51.462;6.698;2023-07-16T07:35:54;23.56;54.86
67862;DHT22;54665;51.462;6.698;2023-07-16T07:37:54;24.01;53.41
67862;DHT22;54665;51.462;6.698;2023-07-16T07:39:54;22.30;56.68
67862;DHT22;54665;51.462;6.698;2023-07-16T07:41:54;22.74;56.16
67862;DHT22;54665;51.462;6.698;2023-07-16T07:43:55;23.22;54.61
67862;DHT22;54665;51.462;6.698;2023-07-16T07:45:55;22.37;55.54
67862;DHT22;54665;51.462;6.698;2023-07-16T07:47:55;23.32;55.54
67862;DHT22;54665;51.462;6.698;2023-07-16T07:49:56;23.74;54.32
67862;DHT22;54665;51.462;6.698;2023-07-16T07:51:56;23.45;54.62
67862;DHT22;54665;51.462;6.698;2023-07-16T07:53:56;23.47;55.11
67862;DHT22;54665;51.462;6.698;2023-07-16T07:55:57;23.86;53.74
67862;DHT22;54665;51.462;6.698;2023-07-16T07:57:57;23.54;54.26
67862;DHT22;54665;51.462;6.698;2023-07-16T07:59:57;23.38;54.72
67862;DHT22;54665;51.462;6.698;2023-07-16T08:01:58;23.35;54.64
67862;DHT22;54665;51.462;6.698;2023-07-16T08:03:58;23.36;54.28
67862;DHT22;54665;51.462;6.698;2023-07-16T08:05:59;23.77;53.92
67862;DHT22;54665;51.462;6.698;2023-07-16T08:07:59;23.54;54.85
67862;DHT22;54665;51.462;6.698;2023-07-16T08:10:00;23.22;54.41
67862;DHT22;54665;51.462;6.698;2023-07-16T08:12:00;22.32;56.33
67862;DHT22;54665;51.462;6.698;2023-07-16T08:14:00;22.25;57.49
67862;DHT22;54665;51.462;6.698;2023-07-16T08:16:01;22.55;56.64
67862;DHT22;54665;51.462;6.698;2023-07-16T08:18:01;23.22;56.46
67862;DHT22;54665;51.462;6.698;2023-07-16T08:20:01;23.20;55.60
67862;DHT22;54665;51.462;6.698;2023-07-16T08:22:02;22.60;56.73
67862;DHT22;54665;51.462;6.698;2023-07-16T08:24:02;23.27;54.45
67862;DHT22;54665;51.462;6.698;2023-07-16T08:26:02;23.54;53.74
67862;DHT22;54665;51.462;6.698;2023-07-16T08:28:03;23.60;53.92
67862;DHT22;54665;51.462;6.698;2023-07-16T08:30:04;23.77;56.19
67862;DHT22;54665;51.462;6.698;2023-07-16T08:32:05;23.76;54.39
67862;DHT22;54665;51.462;6.698;2023-07-16T08:34:05;24.58;51.81
67862;DHT22;54665;51.462;6.698;2023-07-16T08:36:06;23.83;52.61
67862;DHT22;54665;51.462;6.698;2023-07-16T08:38:06;24.18;52.77
67862;DHT22;54665;51.462;6.698;2023-07-16T08:40:07;24.75;52.14
67862;DHT22;54665;51.462;6.698;2023-07-16T08:42:09;24.36;52.11
67862;DHT22;54665;51.462;6.698;2023-07-16T08:44:10;24.24;52.41
67862;DHT22;54665;51.462;6.698;2023-07-16T08:46:11;24.32;52.14
67862;DHT22;54665;51.462;6.698;2023-07-16T08:48:12;24.24;52.01
67862;DHT22;54665;51.462;6.698;2023-07-16T08:50:13;24.80;51.01
67862;DHT22;54665;51.462;6.698;2023-07-16T08:52:13;25.22;50.25
67862;DHT22;54665;51.462;6.698;2023-07-16T08:54:15;25.50;49.78
67862;DHT22;54665;51.462;6.698;2023-07-16T08:56:15;25.24;48.61
67862;DHT22;54665;51.462;6.698;2023-07-16T08:58:16;24.76;50.40
67862;DHT22;54665;51.462;6.698;2023-07-16T09:00:17;24.17;50.67
67862;DHT22;54665;51.462;6.698;2023-07-16T09:02:18;24.27;51.55
67862;DHT22;54665;51.462;6.698;2023-07-16T09:04:18;25.53;50.16
67862;DHT22;54665;51.462;6.698;2023-07-16T09:06:19;25.40;47.94
67862;DHT22;54665;51.462;6.698;2023-07-16T09:08:19;25.67;48.76
67862;DHT22;54665;51.462;6.698;2023-07-16T09:10:19;24.64;50.66
67862;DHT22;54665;51.462;6.698;2023-07-16T09:12:23;24.45;50.87
67862;DHT22;54665;51.462;6.698;2023-07-16T09:14:23;24.52;52.16
67862;DHT22;54665;51.462;6.698;2023-07-16T09:16:24;23.62;51.76
67862;DHT22;54665;51.462;6.698;2023-07-16T09:18:26;24.14;52.00
67862;DHT22;54665;51.462;6.698;2023-07-16T09:20:26;24.36;51.43
67862;DHT22;54665;51.462;6.698;2023-07-16T09:22:26;24.65;52.20
67862;DHT22;54665;51.462;6.698;2023-07-16T09:24:28;24.14;53.13
67862;DHT22;54665;51.462;6.698;2023-07-16T09:26:29;23.50;52.56
67862;DHT22;54665;51.462;6.698;2023-07-16T09:28:32;23.49;53.61
67862;DHT22;54665;51.462;6.698;2023-07-16T09:30:33;24.10;51.10
67862;DHT22;54665;51.462;6.698;2023-07-16T09:32:38;23.66;52.61
67862;DHT22;54665;51.462;6.698;2023-07-16T09:34:38;24.00;52.73
67862;DHT22;54665;51.462;6.698;2023-07-16T09:36:39;24.42;51.42
67862;DHT22;54665;51.462;6.698;2023-07-16T09:38:40;23.70;52.45
67862;DHT22;54665;51.462;6.698;2023-07-16T09:40:41;24.20;51.78
67862;DHT22;54665;51.462;6.698;2023-07-16T09:42:43;24.54;51.35
67862;DHT22;54665;51.462;6.698;2023-07-16T09:44:44;24.11;52.60
67862;DHT22;54665;51.462;6.698;2023-07-16T09:46:45;23.81;51.68
67862;DHT22;54665;51.462;6.698;2023-07-16T09:48:46;22.94;53.17
67862;DHT22;54665;51.462;6.698;2023-07-16T09:50:50;22.72;53.72
67862;DHT22;54665;51.462;6.698;2023-07-16T09:52:51;23.20;55.25
67862;DHT22;54665;51.462;6.698;2023-07-16T09:54:53;23.84;52.78
67862;DHT22;54665;51.462;6.698;2023-07-16T09:56:57;24.20;51.59
67862;DHT22;54665;51.462;6.698;2023-07-16T09:58:58;23.25;52.11
67862;DHT22;54665;51.462;6.698;2023-07-16T10:01:00;24.35;50.80
67862;DHT22;54665;51.462;6.698;2023-07-16T10:03:01;25.40;49.72
67862;DHT22;54665;51.462;6.698;2023-07-16T10:05:12;24.65;51.14
67862;DHT22;54665;51.462;6.698;2023-07-16T10:07:22;24.47;53.38
67862;DHT22;54665;51.462;6.698;2023-07-16T10:11:40;25.92;47.72
67862;DHT22;54665;51.462;6.698;2023-07-16T10:13:40;25.60;47.85
67862;DHT22;54665;51.462;6.698;2023-07-16T10:15:54;25.74;48.56
67862;DHT22;54665;51.462;6.698;2023-07-16T10:17:56;25.51;48.73
67862;DHT22;54665;51.462;6.698;2023-07-16T10:22:06;24.90;48.34
67862;DHT22;54665;51.462;6.698;2023-07-16T10:24:16;24.66;50.33
67862;DHT22;54665;51.462;6.698;2023-07-16T10:26:17;24.41;51.24
67862;DHT22;54665;51.462;6.698;2023-07-16T10:28:17;23.76;51.61
67862;DHT22;54665;51.462;6.698;2023-07-16T10:30:18;23.38;54.19
67862;DHT22;54665;51.462;6.698;2023-07-16T10:32:19;23.88;50.72
67862;DHT22;54665;51.462;6.698;2023-07-16T10:34:22;24.07;51.66
67862;DHT22;54665;51.462;6.698;2023-07-16T10:36:23;23.64;52.19
67862;DHT22;54665;51.462;6.698;2023-07-16T10:38:23;23.42;53.25
67862;DHT22;54665;51.462;6.698;2023-07-16T10:40:23;23.71;53.19
67862;DHT22;54665;51.462;6.698;2023-07-16T10:42:24;24.11;51.02
67862;DHT22;54665;51.462;6.698;2023-07-16T10:44:27;23.77;52.31
67862;DHT22;54665;51.462;6.698;2023-07-16T10:46:27;23.64;53.14
67862;DHT22;54665;51.462;6.698;2023-07-16T10:48:28;23.81;52.59
67862;DHT22;54665;51.462;6.698;2023-07-16T10:50:28;24.13;52.04
67862;DHT22;54665;51.462;6.698;2023-07-16T10:52:28;24.35;51.05
67862;DHT22;54665;51.462;6.698;2023-07-16T10:54:29;23.92;52.16
67862;DHT22;54665;51.462;6.698;2023-07-16T10:56:29;23.78;53.39
67862;DHT22;54665;51.462;6.698;2023-07-16T10:58:29;23.57;52.61
67862;DHT22;54665;51.462;6.698;2023-07-16T11:00:30;23.27;53.67
67862;DHT22;54665;51.462;6.698;2023-07-16T11:02:30;23.54;53.23
67862;DHT22;54665;51.462;6.698;2023-07-16T11:04:34;23.70;52.83
67862;DHT22;54665;51.462;6.698;2023-07-16T11:06:34;23.69;54.95
67862;DHT22;54665;51.462;6.698;2023-07-16T11:08:35;23.30;53.75
67862;DHT22;54665;51.462;6.698;2023-07-16T11:10:35;22.92;54.16
67862;DHT22;54665;51.462;6.698;2023-07-16T11:12:36;23.18;54.23
67862;DHT22;54665;51.462;6.698;2023-07-16T11:14:37;23.38;52.68
67862;DHT22;54665;51.462;6.698;2023-07-16T11:16:38;23.76;53.41
67862;DHT22;54665;51.462;6.698;2023-07-16T11:18:38;24.01;54.18
67862;DHT22;54665;51.462;6.698;2023-07-16T11:20:39;24.42;52.22
67862;DHT22;54665;51.462;6.698;2023-07-16T11:22:39;24.47;50.68
67862;DHT22;54665;51.462;6.698;2023-07-16T11:24:42;24.28;49.94
67862;DHT22;54665;51.462;6.698;2023-07-16T11:26:56;24.01;51.41
67862;DHT22;54665;51.462;6.698;2023-07-16T11:28:56;23.87;51.41
67862;DHT22;54665;51.462;6.698;2023-07-16T11:30:57;23.97;51.90
67862;DHT22;54665;51.462;6.698;2023-07-16T11:32:58;24.13;54.14
67862;DHT22;54665;51.462;6.698;2023-07-16T11:35:00;24.05;53.22
67862;DHT22;54665;51.462;6.698;2023-07-16T11:37:10;23.84;51.10
67862;DHT22;54665;51.462;6.698;2023-07-16T11:39:11;23.86;50.98
67862;DHT22;54665;51.462;6.698;2023-07-16T11:41:12;24.07;51.12
67862;DHT22;54665;51.462;6.698;2023-07-16T11:43:12;23.80;50.78
67862;DHT22;54665;51.462;6.698;2023-07-16T11:45:21;23.12;52.25
67862;DHT22;54665;51.462;6.698;2023-07-16T11:47:21;23.74;51.60
67862;DHT22;54665;51.462;6.698;2023-07-16T11:49:21;23.71;53.47
67862;DHT22;54665;51.462;6.698;2023-07-16T11:51:22;23.38;52.68
67862;DHT22;54665;51.462;6.698;2023-07-16T11:53:22;22.95;53.03
67862;DHT22;54665;51.462;6.698;2023-07-16T11:55:23;23.09;52.76
67862;DHT22;54665;51.462;6.698;2023-07-16T11:57:23;23.52;54.36
67862;DHT22;54665;51.462;6.698;2023-07-16T11:59:23;23.46;51.95
67862;DHT22;54665;51.462;6.698;2023-07-16T12:01:24;23.52;52.40
67862;DHT22;54665;51.462;6.698;2023-07-16T12:03:24;23.35;52.45
67862;DHT22;54665;51.462;6.698;2023-07-16T12:05:24;23.12;53.38
67862;DHT22;54665;51.462;6.698;2023-07-16T12:07:36;23.19;52.24
67862;DHT22;54665;51.462;6.698;2023-07-16T12:09:36;23.56;53.29
67862;DHT22;54665;51.462;6.698;2023-07-16T12:11:37;23.81;52.10
67862;DHT22;54665;51.462;6.698;2023-07-16T12:13:37;24.05;52.18
67862;DHT22;54665;51.462;6.698;2023-07-16T12:15:38;24.51;52.63
67862;DHT22;54665;51.462;6.698;2023-07-16T12:17:38;24.68;50.69
67862;DHT22;54665;51.462;6.698;2023-07-16T12:19:38;24.44;51.19
67862;DHT22;54665;51.462;6.698;2023-07-16T12:21:39;24.17;51.31
67862;DHT22;54665;51.462;6.698;2023-07-16T12:23:39;23.60;52.38
67862;DHT22;54665;51.462;6.698;2023-07-16T12:25:40;23.80;54.06
67862;DHT22;54665;51.462;6.698;2023-07-16T12:27:40;24.04;51.95
67862;DHT22;54665;51.462;6.698;2023-07-16T12:29:40;23.78;52.06
67862;DHT22;54665;51.462;6.698;2023-07-16T12:31:40;23.71;52.48
67862;DHT22;54665;51.462;6.698;2023-07-16T12:33:41;24.07;52.87
67862;DHT22;54665;51.462;6.698;2023-07-16T12:35:41;24.27;50.71
67862;DHT22;54665;51.462;6.698;2023-07-16T12:37:41;24.66;51.55
67862;DHT22;54665;51.462;6.698;2023-07-16T12:39:42;24.87;50.82
67862;DHT22;54665;51.462;6.698;2023-07-16T12:41:43;24.59;49.61
67862;DHT22;54665;51.462;6.698;2023-07-16T12:43:43;24.55;50.63
67862;DHT22;54665;51.462;6.698;2023-07-16T12:45:44;24.45;52.06
67862;DHT22;54665;51.462;6.698;2023-07-16T12:47:44;24.59;50.75
67862;DHT22;54665;51.462;6.698;2023-07-16T12:49:44;24.87;50.24
67862;DHT22;54665;51.462;6.698;2023-07-16T12:51:45;24.66;49.98